createdAt,value
2019-03-17T00:00:24.435Z,9.64
2019-03-17T00:01:24.418Z,9.63
2019-03-17T00:02:24.401Z,9.62
2019-03-17T00:03:24.385Z,9.73
2019-03-17T00:04:31.511Z,9.69
2019-03-17T00:05:24.672Z,9.66
2019-03-17T00:06:24.351Z,9.67
2019-03-17T00:07:24.315Z,9.69
2019-03-17T00:08:24.296Z,9.66
2019-03-17T00:09:24.279Z,9.63
2019-03-17T00:10:24.262Z,9.74
2019-03-17T00:11:24.241Z,9.67
2019-03-17T00:12:24.234Z,9.72
2019-03-17T00:13:24.201Z,9.72
2019-03-17T00:14:24.193Z,9.62
2019-03-17T00:15:24.174Z,9.69
2019-03-17T00:16:24.160Z,9.64
2019-03-17T00:17:25.189Z,9.58
2019-03-17T00:18:24.125Z,9.74
2019-03-17T00:19:24.102Z,9.74
2019-03-17T00:20:24.084Z,9.76
2019-03-17T00:21:24.141Z,9.84
2019-03-17T00:22:24.050Z,9.84
2019-03-17T00:23:24.023Z,9.87
2019-03-17T00:24:24.013Z,9.87
2019-03-17T00:25:23.995Z,9.88
2019-03-17T00:26:24.061Z,9.94
2019-03-17T00:27:23.965Z,9.87
2019-03-17T00:28:23.938Z,9.87
2019-03-17T00:29:23.925Z,9.87
2019-03-17T00:30:23.911Z,9.87
2019-03-17T00:31:24.468Z,9.87
2019-03-17T00:32:23.875Z,9.81
2019-03-17T00:33:23.857Z,9.81
2019-03-17T00:34:23.838Z,9.85
2019-03-17T00:35:23.817Z,9.77
2019-03-17T00:36:23.807Z,9.82
2019-03-17T00:37:23.785Z,9.67
2019-03-17T00:38:23.768Z,9.70
2019-03-17T00:39:23.744Z,9.76
2019-03-17T00:40:23.726Z,9.73
2019-03-17T00:41:23.716Z,9.76
2019-03-17T00:42:23.698Z,9.72
2019-03-17T00:43:24.036Z,9.63
2019-03-17T00:44:23.657Z,9.73
2019-03-17T00:45:32.318Z,9.74
2019-03-17T00:47:28.072Z,9.77
2019-03-17T00:48:28.041Z,9.76
2019-03-17T00:50:32.083Z,9.70
2019-03-17T00:51:32.061Z,9.74
2019-03-17T00:52:32.050Z,9.74
2019-03-17T00:53:32.022Z,9.70
2019-03-17T00:54:32.019Z,9.66
2019-03-17T00:55:31.987Z,9.73
2019-03-17T00:56:31.970Z,9.74
2019-03-17T00:57:31.954Z,9.74
2019-03-17T00:58:31.931Z,9.72
2019-03-17T00:59:31.917Z,9.81
2019-03-17T01:00:31.901Z,9.77
2019-03-17T01:01:31.885Z,9.84
2019-03-17T01:02:31.869Z,9.92
2019-03-17T01:03:31.852Z,9.92
2019-03-17T01:04:31.959Z,9.97
2019-03-17T01:05:31.817Z,10.03
2019-03-17T01:06:31.801Z,10.03
2019-03-17T01:07:31.779Z,10.15
2019-03-17T01:08:31.759Z,10.05
2019-03-17T01:09:31.743Z,10.03
2019-03-17T01:10:31.723Z,10.03
2019-03-17T01:11:31.707Z,10.09
2019-03-17T01:12:31.695Z,10.06
2019-03-17T01:13:31.673Z,10.07
2019-03-17T01:14:31.652Z,10.07
2019-03-17T01:15:31.634Z,10.03
2019-03-17T01:16:31.622Z,10.03
2019-03-17T01:17:31.607Z,10.05
2019-03-17T01:18:31.587Z,9.95
2019-03-17T01:19:31.583Z,9.99
2019-03-17T01:20:31.548Z,9.97
2019-03-17T01:21:31.531Z,10.03
2019-03-17T01:22:31.516Z,9.90
2019-03-17T01:23:31.497Z,9.94
2019-03-17T01:24:31.476Z,9.94
2019-03-17T01:25:31.462Z,9.91
2019-03-17T01:26:31.452Z,9.85
2019-03-17T01:27:31.427Z,9.85
2019-03-17T01:28:31.410Z,9.85
2019-03-17T01:29:31.399Z,9.91
2019-03-17T01:30:31.377Z,9.95
2019-03-17T01:31:31.355Z,9.91
2019-03-17T01:32:31.342Z,9.95
2019-03-17T01:33:31.325Z,10.02
2019-03-17T01:34:31.305Z,10.02
2019-03-17T01:35:32.708Z,10.05
2019-03-17T01:36:31.273Z,10.07
2019-03-17T01:37:31.259Z,10.03
2019-03-17T01:38:31.235Z,10.06
2019-03-17T01:39:31.212Z,10.03
2019-03-17T01:40:31.201Z,10.03
2019-03-17T01:41:31.182Z,10.00
2019-03-17T01:42:31.160Z,10.06
2019-03-17T01:43:31.145Z,9.97
2019-03-17T01:44:31.131Z,10.03
2019-03-17T01:45:31.124Z,10.10
2019-03-17T01:46:31.094Z,10.10
2019-03-17T01:47:31.079Z,10.07
2019-03-17T01:48:31.059Z,10.09
2019-03-17T01:49:31.041Z,10.07
2019-03-17T01:50:31.026Z,10.02
2019-03-17T01:51:31.007Z,10.17
2019-03-17T01:52:30.990Z,10.09
2019-03-17T01:53:30.969Z,10.06
2019-03-17T01:54:30.953Z,10.06
2019-03-17T01:55:30.934Z,10.03
2019-03-17T01:56:30.921Z,9.99
2019-03-17T01:57:30.902Z,10.00
2019-03-17T01:58:30.884Z,9.92
2019-03-17T01:59:30.884Z,9.94
2019-03-17T02:00:30.847Z,9.90
2019-03-17T02:01:30.841Z,9.90
2019-03-17T02:02:30.830Z,9.92
2019-03-17T02:03:30.795Z,9.92
2019-03-17T02:04:30.776Z,9.88
2019-03-17T02:05:30.757Z,10.02
2019-03-17T02:06:30.751Z,9.92
2019-03-17T02:07:30.723Z,9.95
2019-03-17T02:08:30.708Z,10.00
2019-03-17T02:09:30.685Z,10.03
2019-03-17T02:10:30.673Z,10.00
2019-03-17T02:11:30.656Z,10.00
2019-03-17T02:12:30.638Z,9.99
2019-03-17T02:13:30.621Z,9.99
2019-03-17T02:14:30.603Z,10.00
2019-03-17T02:15:30.584Z,9.92
2019-03-17T02:16:30.578Z,9.97
2019-03-17T02:17:30.553Z,9.94
2019-03-17T02:18:30.535Z,9.91
2019-03-17T02:19:30.509Z,9.88
2019-03-17T02:20:30.498Z,9.87
2019-03-17T02:21:30.471Z,9.82
2019-03-17T02:22:30.457Z,9.84
2019-03-17T02:23:30.441Z,9.80
2019-03-17T02:24:30.426Z,9.87
2019-03-17T02:25:30.418Z,9.85
2019-03-17T02:26:30.395Z,9.85
2019-03-17T02:27:30.373Z,9.84
2019-03-17T02:28:30.358Z,9.90
2019-03-17T02:29:30.339Z,9.81
2019-03-17T02:30:30.329Z,9.85
2019-03-17T02:31:30.300Z,9.88
2019-03-17T02:32:30.287Z,9.87
2019-03-17T02:33:30.270Z,9.91
2019-03-17T02:34:30.254Z,9.80
2019-03-17T02:35:38.883Z,9.95
2019-03-17T02:36:30.213Z,9.94
2019-03-17T02:37:30.195Z,10.00
2019-03-17T02:38:30.193Z,10.02
2019-03-17T02:39:30.159Z,10.02
2019-03-17T02:40:30.149Z,10.00
2019-03-17T02:41:30.127Z,10.03
2019-03-17T02:42:30.113Z,10.05
2019-03-17T02:43:30.129Z,10.05
2019-03-17T02:44:30.075Z,10.02
2019-03-17T02:45:30.061Z,10.06
2019-03-17T02:46:30.036Z,10.02
2019-03-17T02:47:30.020Z,10.06
2019-03-17T02:48:30.004Z,10.00
2019-03-17T02:49:30.062Z,9.91
2019-03-17T02:50:29.966Z,9.90
2019-03-17T02:51:29.948Z,9.90
2019-03-17T02:52:29.938Z,9.90
2019-03-17T02:53:29.919Z,9.88
2019-03-17T02:54:29.896Z,9.88
2019-03-17T02:55:29.883Z,9.76
2019-03-17T02:56:29.863Z,9.84
2019-03-17T02:57:29.849Z,9.81
2019-03-17T02:58:29.843Z,9.85
2019-03-17T02:59:29.811Z,9.76
2019-03-17T03:00:29.794Z,9.76
2019-03-17T03:01:29.772Z,9.70
2019-03-17T03:02:29.754Z,9.76
2019-03-17T03:03:29.738Z,9.74
2019-03-17T03:04:29.722Z,9.73
2019-03-17T03:05:29.706Z,9.70
2019-03-17T03:06:29.692Z,9.74
2019-03-17T03:07:29.665Z,9.70
2019-03-17T03:08:29.647Z,9.73
2019-03-17T03:09:29.629Z,9.76
2019-03-17T03:10:31.721Z,9.77
2019-03-17T03:11:29.597Z,9.73
2019-03-17T03:12:29.574Z,9.74
2019-03-17T03:13:29.560Z,9.70
2019-03-17T03:14:29.558Z,9.76
2019-03-17T03:15:29.566Z,9.73
2019-03-17T03:16:29.516Z,9.80
2019-03-17T03:17:29.492Z,9.74
2019-03-17T03:18:29.469Z,9.70
2019-03-17T03:19:29.449Z,9.80
2019-03-17T03:20:29.438Z,9.73
2019-03-17T03:21:29.415Z,9.74
2019-03-17T03:22:29.411Z,9.70
2019-03-17T03:23:29.377Z,9.72
2019-03-17T03:24:29.364Z,9.66
2019-03-17T03:25:29.342Z,9.62
2019-03-17T03:26:29.331Z,9.64
2019-03-17T03:27:29.319Z,9.62
2019-03-17T03:28:29.300Z,9.67
2019-03-17T03:29:29.306Z,9.72
2019-03-17T03:30:29.257Z,9.69
2019-03-17T03:31:29.244Z,9.74
2019-03-17T03:32:29.231Z,9.63
2019-03-17T03:33:29.204Z,9.66
2019-03-17T03:34:29.192Z,9.67
2019-03-17T03:35:29.167Z,9.64
2019-03-17T03:36:29.159Z,9.62
2019-03-17T03:37:29.137Z,9.62
2019-03-17T03:38:29.112Z,9.63
2019-03-17T03:39:29.100Z,9.55
2019-03-17T03:40:29.080Z,9.55
2019-03-17T03:41:29.059Z,9.52
2019-03-17T03:42:29.065Z,9.49
2019-03-17T03:43:29.034Z,9.58
2019-03-17T03:44:29.013Z,9.59
2019-03-17T03:45:28.992Z,9.56
2019-03-17T03:46:28.971Z,9.55
2019-03-17T03:47:28.960Z,9.56
2019-03-17T03:48:28.935Z,9.62
2019-03-17T03:49:28.921Z,9.56
2019-03-17T03:50:28.903Z,9.54
2019-03-17T03:51:28.884Z,9.56
2019-03-17T03:52:28.865Z,9.52
2019-03-17T03:53:28.855Z,9.54
2019-03-17T03:54:28.830Z,9.59
2019-03-17T03:55:28.822Z,9.52
2019-03-17T03:56:28.794Z,9.55
2019-03-17T03:57:28.776Z,9.55
2019-03-17T03:58:28.760Z,9.48
2019-03-17T03:59:28.742Z,9.48
2019-03-17T04:00:28.721Z,9.44
2019-03-17T04:01:28.730Z,9.49
2019-03-17T04:02:28.689Z,9.39
2019-03-17T04:03:28.698Z,9.39
2019-03-17T04:04:28.647Z,9.36
2019-03-17T04:05:32.416Z,9.37
2019-03-17T04:06:28.611Z,9.30
2019-03-17T04:07:28.600Z,9.31
2019-03-17T04:08:28.591Z,9.31
2019-03-17T04:09:28.563Z,9.30
2019-03-17T04:10:28.548Z,9.33
2019-03-17T04:11:28.531Z,9.29
2019-03-17T04:12:28.508Z,9.39
2019-03-17T04:13:28.488Z,9.36
2019-03-17T04:14:28.475Z,9.40
2019-03-17T04:15:28.457Z,9.39
2019-03-17T04:16:28.437Z,9.39
2019-03-17T04:17:28.416Z,9.40
2019-03-17T04:18:28.400Z,9.37
2019-03-17T04:19:28.384Z,9.40
2019-03-17T04:20:28.369Z,9.29
2019-03-17T04:21:28.346Z,9.29
2019-03-17T04:22:28.337Z,9.29
2019-03-17T04:23:28.315Z,9.24
2019-03-17T04:24:28.299Z,9.39
2019-03-17T04:25:28.279Z,9.22
2019-03-17T04:26:28.259Z,9.26
2019-03-17T04:27:28.241Z,9.27
2019-03-17T04:28:28.233Z,9.24
2019-03-17T04:29:28.228Z,9.21
2019-03-17T04:30:28.191Z,9.15
2019-03-17T04:31:28.167Z,9.18
2019-03-17T04:32:28.151Z,9.15
2019-03-17T04:33:28.141Z,9.11
2019-03-17T04:34:28.117Z,9.12
2019-03-17T04:35:28.102Z,9.16
2019-03-17T04:36:39.655Z,9.13
2019-03-17T04:37:28.054Z,9.03
2019-03-17T04:38:28.048Z,9.08
2019-03-17T04:39:28.030Z,9.02
2019-03-17T04:40:28.008Z,9.02
2019-03-17T04:41:27.989Z,8.96
2019-03-17T04:42:27.974Z,9.05
2019-03-17T04:43:27.962Z,9.03
2019-03-17T04:44:27.943Z,9.02
2019-03-17T04:45:27.915Z,8.97
2019-03-17T04:46:27.901Z,8.97
2019-03-17T04:47:27.882Z,8.97
2019-03-17T04:48:27.860Z,8.95
2019-03-17T04:49:27.849Z,8.84
2019-03-17T04:50:27.832Z,8.92
2019-03-17T04:51:27.829Z,8.89
2019-03-17T04:52:27.785Z,8.87
2019-03-17T04:53:27.777Z,8.81
2019-03-17T04:54:27.752Z,8.86
2019-03-17T04:55:27.739Z,8.99
2019-03-17T04:56:27.719Z,8.99
2019-03-17T04:57:27.704Z,9.05
2019-03-17T04:58:27.702Z,9.08
2019-03-17T04:59:27.688Z,9.02
2019-03-17T05:00:27.679Z,9.02
2019-03-17T05:01:27.634Z,8.99
2019-03-17T05:02:27.613Z,9.11
2019-03-17T05:03:27.592Z,8.97
2019-03-17T05:04:27.574Z,9.08
2019-03-17T05:05:27.559Z,9.08
2019-03-17T05:06:27.561Z,8.96
2019-03-17T05:07:27.517Z,8.92
2019-03-17T05:08:27.502Z,8.93
2019-03-17T05:09:27.502Z,8.92
2019-03-17T05:10:27.465Z,8.89
2019-03-17T05:11:27.442Z,8.90
2019-03-17T05:12:27.430Z,8.90
2019-03-17T05:13:27.425Z,8.81
2019-03-17T05:14:27.394Z,8.84
2019-03-17T05:15:27.378Z,8.82
2019-03-17T05:16:27.355Z,8.77
2019-03-17T05:17:27.343Z,8.71
2019-03-17T05:18:27.322Z,8.84
2019-03-17T05:19:27.304Z,8.87
2019-03-17T05:20:27.283Z,8.82
2019-03-17T05:21:27.267Z,8.86
2019-03-17T05:22:27.253Z,8.89
2019-03-17T05:23:27.228Z,8.93
2019-03-17T05:24:27.210Z,8.84
2019-03-17T05:25:27.196Z,8.86
2019-03-17T05:26:27.180Z,8.86
2019-03-17T05:27:27.157Z,8.92
2019-03-17T05:28:27.143Z,8.86
2019-03-17T05:29:27.141Z,8.89
2019-03-17T05:30:27.108Z,8.86
2019-03-17T05:31:27.090Z,8.77
2019-03-17T05:32:27.066Z,8.87
2019-03-17T05:33:27.068Z,8.84
2019-03-17T05:34:27.044Z,8.87
2019-03-17T05:35:27.029Z,8.81
2019-03-17T05:36:26.994Z,8.82
2019-03-17T05:37:26.981Z,8.79
2019-03-17T05:38:26.987Z,8.82
2019-03-17T05:39:26.943Z,8.84
2019-03-17T05:40:26.927Z,8.86
2019-03-17T05:41:26.906Z,8.92
2019-03-17T05:42:26.890Z,8.84
2019-03-17T05:43:26.869Z,8.75
2019-03-17T05:44:26.851Z,8.89
2019-03-17T05:45:26.830Z,8.82
2019-03-17T05:46:26.814Z,8.75
2019-03-17T05:47:26.795Z,8.77
2019-03-17T05:48:26.777Z,8.75
2019-03-17T05:49:26.779Z,8.77
2019-03-17T05:50:26.754Z,8.74
2019-03-17T05:51:26.747Z,8.74
2019-03-17T05:52:26.713Z,8.81
2019-03-17T05:53:26.687Z,8.79
2019-03-17T05:54:26.687Z,8.77
2019-03-17T05:55:26.660Z,8.81
2019-03-17T05:56:26.636Z,8.84
2019-03-17T05:57:26.628Z,8.75
2019-03-17T05:58:26.600Z,8.75
2019-03-17T05:59:26.578Z,8.78
2019-03-17T06:00:26.563Z,8.78
2019-03-17T06:01:26.546Z,8.75
2019-03-17T06:02:26.529Z,8.84
2019-03-17T06:03:26.501Z,8.77
2019-03-17T06:04:26.489Z,8.81
2019-03-17T06:05:26.471Z,8.81
2019-03-17T06:06:26.451Z,8.75
2019-03-17T06:07:26.433Z,8.77
2019-03-17T06:08:26.426Z,8.77
2019-03-17T06:09:26.398Z,8.86
2019-03-17T06:10:26.408Z,8.74
2019-03-17T06:11:26.368Z,8.89
2019-03-17T06:12:26.349Z,8.82
2019-03-17T06:13:26.332Z,8.86
2019-03-17T06:14:26.312Z,8.89
2019-03-17T06:15:26.292Z,8.93
2019-03-17T06:16:26.275Z,8.95
2019-03-17T06:17:26.263Z,8.93
2019-03-17T06:18:26.234Z,8.96
2019-03-17T06:19:26.229Z,8.97
2019-03-17T06:20:26.199Z,8.96
2019-03-17T06:21:26.183Z,8.99
2019-03-17T06:22:26.169Z,8.95
2019-03-17T06:23:26.149Z,9.02
2019-03-17T06:24:26.130Z,9.12
2019-03-17T06:25:26.108Z,9.08
2019-03-17T06:26:26.096Z,9.05
2019-03-17T06:27:26.084Z,9.02
2019-03-17T06:28:26.073Z,9.13
2019-03-17T06:29:26.040Z,9.09
2019-03-17T06:30:26.025Z,9.19
2019-03-17T06:31:26.007Z,9.09
2019-03-17T06:32:25.983Z,9.13
2019-03-17T06:33:25.968Z,9.13
2019-03-17T06:34:25.954Z,9.13
2019-03-17T06:35:25.930Z,9.15
2019-03-17T06:36:25.914Z,9.16
2019-03-17T06:37:30.936Z,9.18
2019-03-17T06:38:25.889Z,9.24
2019-03-17T06:39:25.931Z,9.19
2019-03-17T06:40:25.846Z,9.19
2019-03-17T06:41:25.825Z,9.19
2019-03-17T06:42:25.803Z,9.18
2019-03-17T06:43:25.787Z,9.27
2019-03-17T06:44:25.770Z,9.30
2019-03-17T06:45:25.749Z,9.31
2019-03-17T06:46:25.734Z,9.33
2019-03-17T06:47:25.720Z,9.30
2019-03-17T06:48:25.701Z,9.34
2019-03-17T06:49:25.710Z,9.31
2019-03-17T06:50:25.738Z,9.39
2019-03-17T06:51:25.639Z,9.33
2019-03-17T06:52:25.633Z,9.33
2019-03-17T06:53:25.611Z,9.42
2019-03-17T06:54:25.591Z,9.51
2019-03-17T06:55:25.574Z,9.44
2019-03-17T06:56:25.567Z,9.49
2019-03-17T06:57:25.548Z,9.54
2019-03-17T06:58:25.520Z,9.54
2019-03-17T06:59:25.507Z,9.54
2019-03-17T07:00:25.491Z,9.56
2019-03-17T07:01:25.477Z,9.52
2019-03-17T07:02:25.452Z,9.63
2019-03-17T07:03:25.436Z,9.59
2019-03-17T07:04:25.416Z,9.69
2019-03-17T07:05:25.394Z,9.69
2019-03-17T07:06:25.381Z,9.76
2019-03-17T07:07:25.364Z,9.77
2019-03-17T07:08:25.345Z,9.72
2019-03-17T07:09:25.330Z,9.77
2019-03-17T07:10:25.312Z,9.85
2019-03-17T07:11:25.295Z,9.85
2019-03-17T07:12:25.278Z,9.87
2019-03-17T07:13:25.251Z,9.88
2019-03-17T07:14:25.239Z,9.90
2019-03-17T07:15:25.222Z,9.92
2019-03-17T07:16:25.204Z,9.95
2019-03-17T07:17:25.187Z,9.92
2019-03-17T07:18:25.172Z,9.99
2019-03-17T07:19:25.155Z,9.99
2019-03-17T07:20:25.140Z,10.03
2019-03-17T07:21:25.115Z,10.00
2019-03-17T07:22:25.107Z,9.97
2019-03-17T07:23:25.084Z,10.02
2019-03-17T07:24:25.076Z,10.06
2019-03-17T07:25:25.049Z,10.03
2019-03-17T07:26:25.028Z,10.03
2019-03-17T07:27:25.016Z,10.05
2019-03-17T07:28:25.002Z,10.07
2019-03-17T07:29:24.973Z,10.06
2019-03-17T07:30:24.964Z,10.09
2019-03-17T07:31:24.944Z,10.06
2019-03-17T07:32:24.927Z,10.15
2019-03-17T07:33:24.909Z,10.13
2019-03-17T07:34:24.890Z,10.17
2019-03-17T07:35:24.879Z,10.13
2019-03-17T07:36:24.861Z,10.15
2019-03-17T07:37:24.843Z,10.15
2019-03-17T07:38:24.828Z,10.10
2019-03-17T07:39:24.803Z,10.17
2019-03-17T07:40:24.792Z,10.17
2019-03-17T07:41:24.777Z,10.23
2019-03-17T07:42:24.778Z,10.27
2019-03-17T07:43:24.735Z,10.23
2019-03-17T07:44:24.721Z,10.39
2019-03-17T07:45:24.704Z,10.42
2019-03-17T07:46:24.689Z,10.43
2019-03-17T07:47:24.672Z,10.42
2019-03-17T07:48:24.652Z,10.49
2019-03-17T07:49:24.640Z,10.61
2019-03-17T07:50:24.613Z,10.64
2019-03-17T07:51:24.599Z,10.75
2019-03-17T07:52:24.584Z,10.71
2019-03-17T07:53:24.567Z,10.79
2019-03-17T07:54:24.555Z,10.77
2019-03-17T07:55:24.615Z,10.92
2019-03-17T07:56:24.518Z,10.87
2019-03-17T07:57:24.523Z,11.01
2019-03-17T07:58:24.487Z,11.01
2019-03-17T07:59:24.483Z,11.08
2019-03-17T08:00:31.686Z,11.10
2019-03-17T08:01:24.429Z,11.18
2019-03-17T08:02:24.433Z,11.15
2019-03-17T08:03:24.404Z,11.19
2019-03-17T08:04:24.386Z,11.34
2019-03-17T08:05:24.369Z,11.38
2019-03-17T08:06:24.364Z,11.38
2019-03-17T08:07:24.341Z,11.37
2019-03-17T08:08:24.348Z,11.44
2019-03-17T08:09:24.321Z,11.43
2019-03-17T08:10:24.291Z,11.52
2019-03-17T08:11:24.279Z,11.58
2019-03-17T08:12:24.256Z,11.63
2019-03-17T08:13:24.270Z,11.67
2019-03-17T08:14:24.222Z,11.68
2019-03-17T08:15:24.213Z,11.71
2019-03-17T08:16:24.220Z,11.74
2019-03-17T08:17:24.224Z,11.80
2019-03-17T08:18:24.163Z,11.74
2019-03-17T08:19:24.146Z,11.86
2019-03-17T08:20:24.143Z,11.88
2019-03-17T08:21:24.132Z,11.97
2019-03-17T08:22:24.102Z,11.89
2019-03-17T08:23:24.085Z,11.95
2019-03-17T08:24:24.071Z,11.95
2019-03-17T08:25:24.053Z,12.05
2019-03-17T08:26:24.042Z,12.02
2019-03-17T08:27:24.036Z,12.02
2019-03-17T08:28:24.005Z,12.10
2019-03-17T08:29:23.992Z,12.15
2019-03-17T08:30:23.973Z,12.07
2019-03-17T08:31:23.970Z,12.17
2019-03-17T08:32:23.946Z,12.18
2019-03-17T08:33:23.927Z,12.14
2019-03-17T08:34:23.915Z,12.15
2019-03-17T08:35:23.898Z,12.21
2019-03-17T08:36:23.880Z,12.23
2019-03-17T08:37:23.864Z,12.25
2019-03-17T08:38:23.854Z,12.32
2019-03-17T08:39:23.836Z,12.32
2019-03-17T08:40:23.815Z,12.53
2019-03-17T08:41:23.801Z,12.66
2019-03-17T08:42:23.793Z,12.63
2019-03-17T08:43:23.774Z,12.61
2019-03-17T08:44:23.757Z,12.63
2019-03-17T08:45:23.747Z,12.76
2019-03-17T08:46:23.747Z,12.86
2019-03-17T08:47:23.713Z,12.88
2019-03-17T08:48:23.697Z,12.94
2019-03-17T08:49:23.686Z,13.05
2019-03-17T08:50:23.671Z,13.17
2019-03-17T08:51:23.761Z,13.26
2019-03-17T08:52:23.639Z,13.39
2019-03-17T08:53:23.621Z,13.33
2019-03-17T08:54:23.609Z,13.30
2019-03-17T08:55:23.593Z,13.43
2019-03-17T08:56:23.582Z,13.47
2019-03-17T08:57:23.567Z,13.52
2019-03-17T08:58:23.549Z,13.58
2019-03-17T08:59:23.533Z,13.54
2019-03-17T09:00:23.517Z,13.68
2019-03-17T09:01:23.505Z,13.60
2019-03-17T09:02:23.489Z,13.55
2019-03-17T09:03:23.471Z,13.60
2019-03-17T09:04:23.461Z,13.62
2019-03-17T09:05:23.444Z,13.64
2019-03-17T09:06:23.431Z,13.68
2019-03-17T09:07:23.415Z,13.71
2019-03-17T09:08:34.164Z,13.62
2019-03-17T09:09:23.386Z,13.64
2019-03-17T09:10:23.373Z,13.64
2019-03-17T09:11:23.363Z,13.62
2019-03-17T09:12:23.345Z,13.49
2019-03-17T09:13:23.334Z,13.36
2019-03-17T09:14:23.317Z,13.20
2019-03-17T09:15:23.298Z,13.17
2019-03-17T09:16:23.286Z,13.06
2019-03-17T09:17:23.268Z,12.94
2019-03-17T09:18:23.253Z,12.81
2019-03-17T09:19:23.244Z,12.62
2019-03-17T09:20:23.301Z,12.70
2019-03-17T09:21:23.235Z,12.53
2019-03-17T09:22:23.194Z,12.37
2019-03-17T09:23:23.179Z,12.35
2019-03-17T09:24:23.159Z,12.37
2019-03-17T09:25:23.140Z,12.28
2019-03-17T09:26:23.133Z,12.25
2019-03-17T09:27:23.118Z,12.33
2019-03-17T09:28:23.108Z,12.35
2019-03-17T09:29:23.089Z,12.47
2019-03-17T09:30:23.071Z,12.53
2019-03-17T09:31:23.053Z,12.53
2019-03-17T09:32:23.049Z,12.65
2019-03-17T09:33:23.020Z,12.54
2019-03-17T09:34:23.010Z,12.48
2019-03-17T09:35:22.995Z,12.51
2019-03-17T09:36:22.979Z,12.36
2019-03-17T09:37:22.965Z,12.36
2019-03-17T09:38:22.947Z,12.35
2019-03-17T09:39:22.922Z,12.33
2019-03-17T09:40:22.912Z,12.32
2019-03-17T09:41:22.899Z,12.37
2019-03-17T09:42:22.885Z,12.43
2019-03-17T09:43:22.872Z,12.45
2019-03-17T09:44:22.853Z,12.55
2019-03-17T09:45:22.839Z,12.45
2019-03-17T09:46:22.821Z,12.50
2019-03-17T09:47:22.808Z,12.65
2019-03-17T09:48:22.790Z,12.65
2019-03-17T09:49:22.775Z,12.65
2019-03-17T09:50:22.763Z,12.72
2019-03-17T09:51:22.741Z,12.81
2019-03-17T09:52:22.727Z,12.80
2019-03-17T09:53:22.713Z,12.78
2019-03-17T09:54:22.703Z,12.81
2019-03-17T09:55:22.690Z,12.76
2019-03-17T09:56:22.669Z,12.81
2019-03-17T09:57:22.653Z,12.88
2019-03-17T09:58:22.642Z,12.91
2019-03-17T09:59:22.694Z,13.05
2019-03-17T10:00:22.606Z,13.19
2019-03-17T10:01:22.592Z,13.33
2019-03-17T10:02:22.578Z,13.52
2019-03-17T10:03:22.563Z,13.58
2019-03-17T10:04:22.545Z,13.50
2019-03-17T10:05:22.531Z,13.55
2019-03-17T10:06:22.518Z,13.57
2019-03-17T10:07:22.506Z,13.45
2019-03-17T10:08:22.484Z,13.31
2019-03-17T10:09:22.473Z,13.27
2019-03-17T10:10:22.534Z,13.17
2019-03-17T10:11:22.446Z,13.09
2019-03-17T10:12:22.428Z,13.02
2019-03-17T10:13:22.412Z,12.86
2019-03-17T10:14:22.395Z,12.70
2019-03-17T10:15:22.375Z,12.66
2019-03-17T10:16:22.363Z,12.58
2019-03-17T10:17:22.353Z,12.63
2019-03-17T10:18:22.333Z,12.63
2019-03-17T10:19:22.320Z,12.73
2019-03-17T10:20:22.302Z,12.83
2019-03-17T10:21:22.287Z,12.93
2019-03-17T10:22:22.273Z,13.05
2019-03-17T10:23:22.256Z,13.12
2019-03-17T10:24:22.245Z,13.19
2019-03-17T10:25:22.229Z,13.30
2019-03-17T10:26:22.216Z,13.30
2019-03-17T10:27:22.197Z,13.42
2019-03-17T10:28:22.178Z,13.50
2019-03-17T10:29:22.173Z,13.62
2019-03-17T10:30:22.226Z,13.76
2019-03-17T10:31:22.140Z,13.75
2019-03-17T10:32:22.125Z,13.68
2019-03-17T10:33:22.113Z,13.58
2019-03-17T10:34:22.102Z,13.57
2019-03-17T10:35:22.080Z,13.57
2019-03-17T10:36:22.065Z,13.58
2019-03-17T10:37:22.055Z,13.47
2019-03-17T10:38:22.037Z,13.46
2019-03-17T10:39:22.021Z,13.55
2019-03-17T10:40:22.014Z,13.61
2019-03-17T10:41:21.994Z,13.57
2019-03-17T10:42:21.977Z,13.61
2019-03-17T10:43:21.967Z,13.62
2019-03-17T10:44:21.946Z,13.60
2019-03-17T10:45:21.931Z,13.60
2019-03-17T10:46:21.919Z,13.55
2019-03-17T10:47:21.905Z,13.55
2019-03-17T10:48:21.884Z,13.36
2019-03-17T10:49:21.875Z,13.33
2019-03-17T10:50:21.862Z,13.33
2019-03-17T10:51:21.848Z,13.28
2019-03-17T10:52:21.834Z,13.30
2019-03-17T10:53:21.818Z,13.37
2019-03-17T10:54:21.801Z,13.31
2019-03-17T10:55:21.781Z,13.23
2019-03-17T10:56:21.773Z,13.12
2019-03-17T10:57:21.759Z,13.05
2019-03-17T10:58:21.744Z,13.03
2019-03-17T10:59:21.725Z,12.86
2019-03-17T11:00:21.716Z,12.94
2019-03-17T11:01:21.696Z,12.87
2019-03-17T11:02:21.696Z,12.88
2019-03-17T11:03:21.668Z,12.81
2019-03-17T11:04:21.655Z,12.83
2019-03-17T11:05:21.640Z,12.76
2019-03-17T11:06:21.624Z,12.68
2019-03-17T11:07:21.609Z,12.72
2019-03-17T11:08:21.596Z,12.61
2019-03-17T11:09:25.537Z,12.58
2019-03-17T11:10:21.613Z,12.65
2019-03-17T11:11:21.543Z,12.65
2019-03-17T11:12:21.527Z,12.61
2019-03-17T11:13:21.521Z,12.53
2019-03-17T11:14:21.500Z,12.48
2019-03-17T11:15:21.486Z,12.32
2019-03-17T11:16:21.473Z,12.33
2019-03-17T11:17:21.454Z,12.23
2019-03-17T11:18:21.469Z,12.25
2019-03-17T11:19:21.423Z,12.21
2019-03-17T11:20:21.426Z,12.10
2019-03-17T11:21:21.396Z,12.07
2019-03-17T11:22:21.378Z,12.08
2019-03-17T11:23:21.360Z,11.97
2019-03-17T11:24:21.344Z,11.93
2019-03-17T11:25:21.333Z,11.93
2019-03-17T11:26:21.317Z,11.81
2019-03-17T11:27:21.298Z,11.83
2019-03-17T11:28:21.282Z,11.60
2019-03-17T11:29:21.267Z,11.55
2019-03-17T11:30:21.257Z,11.51
2019-03-17T11:31:21.242Z,11.44
2019-03-17T11:32:21.222Z,11.40
2019-03-17T11:33:21.211Z,11.40
2019-03-17T11:34:21.267Z,11.31
2019-03-17T11:35:21.171Z,11.35
2019-03-17T11:36:21.164Z,11.25
2019-03-17T11:37:23.543Z,11.26
2019-03-17T11:38:21.125Z,11.23
2019-03-17T11:39:21.111Z,11.15
2019-03-17T11:40:21.084Z,11.15
2019-03-17T11:41:21.079Z,11.10
2019-03-17T11:42:21.059Z,11.10
2019-03-17T11:43:21.040Z,11.00
2019-03-17T11:44:21.026Z,10.90
2019-03-17T11:45:21.008Z,10.95
2019-03-17T11:46:20.996Z,10.92
2019-03-17T11:47:20.971Z,10.97
2019-03-17T11:48:20.958Z,10.87
2019-03-17T11:49:20.950Z,10.82
2019-03-17T11:50:20.961Z,10.79
2019-03-17T11:51:20.914Z,10.69
2019-03-17T11:52:20.891Z,10.67
2019-03-17T11:53:20.876Z,10.57
2019-03-17T11:54:20.858Z,10.48
2019-03-17T11:55:20.868Z,10.48
2019-03-17T11:56:20.823Z,10.42
2019-03-17T11:57:20.805Z,10.46
2019-03-17T11:58:20.792Z,10.41
2019-03-17T11:59:20.773Z,10.43
2019-03-17T12:00:20.755Z,10.38
2019-03-17T12:01:20.745Z,10.31
2019-03-17T12:02:26.528Z,10.31
2019-03-17T12:03:20.706Z,10.17
2019-03-17T12:04:20.692Z,10.15
2019-03-17T12:05:20.675Z,10.12
2019-03-17T12:06:20.657Z,10.03
2019-03-17T12:07:20.640Z,9.91
2019-03-17T12:08:20.620Z,9.82
2019-03-17T12:09:29.021Z,9.88
2019-03-17T12:10:20.597Z,9.59
2019-03-17T12:11:20.567Z,9.47
2019-03-17T12:12:20.558Z,9.40
2019-03-17T12:13:20.539Z,9.19
2019-03-17T12:14:20.522Z,9.03
2019-03-17T12:15:20.504Z,8.84
2019-03-17T12:16:20.481Z,8.81
2019-03-17T12:17:20.464Z,8.77
2019-03-17T12:18:20.461Z,8.66
2019-03-17T12:19:20.431Z,8.54
2019-03-17T12:20:20.473Z,8.46
2019-03-17T12:21:20.395Z,8.35
2019-03-17T12:22:20.379Z,8.24
2019-03-17T12:23:20.357Z,8.13
2019-03-17T12:24:20.341Z,8.03
2019-03-17T12:25:20.326Z,7.98
2019-03-17T12:26:20.315Z,7.83
2019-03-17T12:27:20.285Z,7.74
2019-03-17T12:28:20.270Z,7.67
2019-03-17T12:29:20.274Z,7.61
2019-03-17T12:30:20.234Z,7.62
2019-03-17T12:31:20.215Z,7.56
2019-03-17T12:32:20.192Z,7.55
2019-03-17T12:33:20.195Z,7.53
2019-03-17T12:34:28.098Z,7.47
2019-03-17T12:35:20.146Z,7.43
2019-03-17T12:36:20.129Z,7.50
2019-03-17T12:37:20.104Z,7.46
2019-03-17T12:38:20.088Z,7.41
2019-03-17T12:39:20.073Z,7.41
2019-03-17T12:40:20.061Z,7.44
2019-03-17T12:41:20.042Z,7.46
2019-03-17T12:42:20.012Z,7.37
2019-03-17T12:43:19.996Z,7.40
2019-03-17T12:44:19.977Z,7.44
2019-03-17T12:45:19.966Z,7.39
2019-03-17T12:46:19.940Z,7.26
2019-03-17T12:47:19.927Z,7.31
2019-03-17T12:48:19.909Z,7.23
2019-03-17T12:49:19.888Z,7.21
2019-03-17T12:50:19.870Z,7.23
2019-03-17T12:51:19.853Z,7.28
2019-03-17T12:52:19.833Z,7.22
2019-03-17T12:53:19.817Z,7.18
2019-03-17T12:54:19.797Z,7.18
2019-03-17T12:55:19.783Z,7.05
2019-03-17T12:56:19.761Z,7.04
2019-03-17T12:57:19.743Z,7.07
2019-03-17T12:58:19.725Z,7.14
2019-03-17T12:59:19.702Z,6.97
2019-03-17T13:00:19.685Z,7.08
2019-03-17T13:01:19.669Z,7.05
2019-03-17T13:02:19.665Z,6.92
2019-03-17T13:03:19.630Z,6.90
2019-03-17T13:04:19.616Z,6.92
2019-03-17T13:05:19.590Z,6.82
2019-03-17T13:06:19.607Z,6.74
2019-03-17T13:07:19.553Z,6.77
2019-03-17T13:08:19.542Z,6.59
2019-03-17T13:09:19.529Z,6.53